createdAt,value
2022-12-04T00:02:14.324Z,42.88
2022-12-04T00:07:15.996Z,44.90
2022-12-04T00:12:17.606Z,43.70
2022-12-04T00:17:19.659Z,44.30
2022-12-04T00:22:21.341Z,42.85
2022-12-04T00:27:22.982Z,43.28
2022-12-04T00:32:24.618Z,40.92
2022-12-04T00:37:26.325Z,45.15
2022-12-04T00:42:28.087Z,41.95
2022-12-04T00:47:29.684Z,44.58
2022-12-04T00:52:31.289Z,43.80
2022-12-04T00:57:32.910Z,41.70
2022-12-04T01:02:34.673Z,46.22
2022-12-04T01:07:36.376Z,43.58
2022-12-04T01:12:38.075Z,45.63
2022-12-04T01:17:39.751Z,44.33
2022-12-04T01:22:41.428Z,45.50
2022-12-04T01:27:43.174Z,46.35
2022-12-04T01:32:44.862Z,45.05
2022-12-04T01:37:46.458Z,45.13
2022-12-04T01:42:48.076Z,44.10
2022-12-04T01:47:49.875Z,46.05
2022-12-04T01:52:52.168Z,45.10
2022-12-04T01:57:53.823Z,42.28
2022-12-04T02:02:55.851Z,44.40
2022-12-04T02:08:02.308Z,44.97
2022-12-04T02:13:17.244Z,44.43
2022-12-04T02:18:32.538Z,43.35
2022-12-04T02:23:39.937Z,41.95
2022-12-04T02:28:47.718Z,41.45
2022-12-04T02:34:00.575Z,45.10
2022-12-04T02:39:07.920Z,45.50
2022-12-04T02:44:21.811Z,46.40
2022-12-04T02:49:37.840Z,45.85
2022-12-04T02:54:45.828Z,44.10
2022-12-04T02:59:50.624Z,45.58
2022-12-04T03:04:55.576Z,45.65
2022-12-04T03:10:09.340Z,47.70
2022-12-04T03:15:43.190Z,48.60
2022-12-04T03:20:49.024Z,48.53
2022-12-04T03:26:00.332Z,50.28
2022-12-04T03:31:06.962Z,48.53
2022-12-04T03:36:20.074Z,36.72
2022-12-04T03:41:49.911Z,48.50
2022-12-04T03:47:17.167Z,50.90
2022-12-04T03:52:32.735Z,45.70
2022-12-04T03:57:40.451Z,48.83
2022-12-04T04:02:57.371Z,46.38
2022-12-04T04:13:46.683Z,44.38
2022-12-04T04:19:10.162Z,47.92
2022-12-04T04:24:25.931Z,49.35
2022-12-04T04:29:27.934Z,51.53
2022-12-04T04:34:48.784Z,51.50
2022-12-04T04:40:14.344Z,51.80
2022-12-04T04:45:25.039Z,53.55
2022-12-04T04:50:27.695Z,50.53
2022-12-04T04:55:34.385Z,53.25
2022-12-04T05:00:36.905Z,54.00
2022-12-04T05:05:38.566Z,52.95
2022-12-04T05:10:40.216Z,52.45
2022-12-04T05:15:42.370Z,52.75
2022-12-04T05:20:44.102Z,51.88
2022-12-04T05:25:45.989Z,51.90
2022-12-04T05:30:55.373Z,54.10
2022-12-04T05:36:02.548Z,49.70
2022-12-04T05:41:06.045Z,51.67
2022-12-04T05:46:09.018Z,51.72
2022-12-04T05:51:11.159Z,52.95
2022-12-04T05:56:12.926Z,50.90
2022-12-04T06:01:23.624Z,52.60
2022-12-04T06:06:26.517Z,49.97
2022-12-04T06:11:31.740Z,51.50
2022-12-04T06:16:36.692Z,53.67
2022-12-04T06:21:40.268Z,50.92
2022-12-04T06:27:04.156Z,56.10
2022-12-04T06:32:04.731Z,52.70
2022-12-04T06:37:06.613Z,52.60
2022-12-04T06:42:08.347Z,53.08
2022-12-04T06:47:10.172Z,51.53
2022-12-04T06:52:11.917Z,50.35
2022-12-04T06:57:13.757Z,54.88
2022-12-04T07:02:15.493Z,52.28
2022-12-04T07:07:17.232Z,49.83
2022-12-04T07:12:19.046Z,52.25
2022-12-04T07:17:20.918Z,52.40
2022-12-04T07:22:22.616Z,51.67
2022-12-04T07:27:24.279Z,50.88
2022-12-04T07:32:25.980Z,54.15
2022-12-04T07:37:27.741Z,56.00
2022-12-04T07:42:29.388Z,53.85
2022-12-04T07:47:31.057Z,54.97
2022-12-04T07:52:40.212Z,54.28
2022-12-04T07:57:42.573Z,57.00
2022-12-04T08:02:44.266Z,58.15
2022-12-04T08:07:46.181Z,55.72
2022-12-04T08:12:47.892Z,59.03
2022-12-04T08:17:49.508Z,55.80
2022-12-04T08:22:51.130Z,55.85
2022-12-04T08:27:52.730Z,57.05
2022-12-04T08:32:54.398Z,59.95
2022-12-04T08:37:56.050Z,66.00
2022-12-04T08:42:57.668Z,64.53
2022-12-04T08:47:59.347Z,60.60
2022-12-04T08:53:01.000Z,63.70
2022-12-04T08:58:04.295Z,63.65
2022-12-04T09:03:06.164Z,58.80
2022-12-04T09:08:08.233Z,58.10
2022-12-04T09:13:10.240Z,56.83
2022-12-04T09:18:12.242Z,55.85
2022-12-04T09:23:13.884Z,56.92
2022-12-04T09:28:15.567Z,55.65
2022-12-04T09:33:17.204Z,54.78
2022-12-04T09:38:19.096Z,55.53
2022-12-04T09:43:30.625Z,52.47
2022-12-04T09:48:40.670Z,54.55
2022-12-04T09:53:47.492Z,55.35
2022-12-04T09:59:02.962Z,53.88
2022-12-04T10:04:06.614Z,52.85
2022-12-04T10:09:27.765Z,52.30
2022-12-04T10:14:41.591Z,51.20
2022-12-04T10:19:55.982Z,54.10
2022-12-04T10:25:04.821Z,52.10
2022-12-04T10:30:23.124Z,50.20
2022-12-04T10:35:30.758Z,49.83
2022-12-04T10:40:44.176Z,51.60
2022-12-04T10:45:46.175Z,50.97
2022-12-04T10:50:47.866Z,52.22
2022-12-04T10:55:49.656Z,50.95
2022-12-04T11:01:06.970Z,49.10
2022-12-04T11:06:10.563Z,51.35
2022-12-04T11:11:14.635Z,69.85
2022-12-04T11:16:40.349Z,55.97
2022-12-04T11:21:42.120Z,53.17
2022-12-04T11:26:43.866Z,55.30
2022-12-04T11:31:54.978Z,52.08
2022-12-04T11:36:57.911Z,55.30
2022-12-04T11:42:19.460Z,55.78
2022-12-04T11:47:23.161Z,56.75
2022-12-04T11:53:07.665Z,52.88
2022-12-04T11:58:40.960Z,54.70
2022-12-04T12:04:27.514Z,55.45
2022-12-04T12:09:37.095Z,52.38
2022-12-04T12:14:55.241Z,54.60
2022-12-04T12:20:04.504Z,48.55
2022-12-04T12:25:12.072Z,54.45
2022-12-04T12:30:17.880Z,57.92
2022-12-04T12:35:29.820Z,56.50
2022-12-04T12:40:43.180Z,56.25
2022-12-04T12:46:06.140Z,54.42
2022-12-04T12:51:37.047Z,55.08
2022-12-04T12:56:49.534Z,54.90
2022-12-04T13:02:00.604Z,51.78
2022-12-04T13:07:28.166Z,54.00
2022-12-04T13:17:39.650Z,49.13
2022-12-04T13:23:25.766Z,51.13
2022-12-04T13:28:55.837Z,53.10
2022-12-04T13:34:11.199Z,52.22
2022-12-04T13:39:24.964Z,51.95
2022-12-04T13:44:27.952Z,49.83
2022-12-04T13:49:34.530Z,50.30
2022-12-04T13:54:37.159Z,49.33
2022-12-04T13:59:40.187Z,48.58
2022-12-04T14:04:46.503Z,48.92
2022-12-04T14:09:53.282Z,50.73
2022-12-04T14:15:21.910Z,50.25
2022-12-04T14:20:29.766Z,54.10
2022-12-04T14:25:38.431Z,53.97
2022-12-04T14:30:41.179Z,53.58
2022-12-04T14:35:48.507Z,51.92
2022-12-04T14:40:53.624Z,55.30
2022-12-04T14:46:01.592Z,75.68
2022-12-04T14:51:22.085Z,57.05
2022-12-04T14:56:30.986Z,60.63
2022-12-04T15:01:38.287Z,61.03
2022-12-04T15:06:40.214Z,67.78
2022-12-04T15:12:09.267Z,61.10
2022-12-04T15:17:12.391Z,55.45
2022-12-04T15:22:27.464Z,64.50
2022-12-04T15:27:32.826Z,116.13
2022-12-04T15:32:34.974Z,62.20
2022-12-04T15:37:37.100Z,68.57
2022-12-04T15:42:38.739Z,73.75
2022-12-04T15:47:43.212Z,61.78
2022-12-04T15:53:08.034Z,55.65
2022-12-04T15:58:22.088Z,64.82
2022-12-04T16:03:42.268Z,69.03
2022-12-04T16:08:46.280Z,53.08
2022-12-04T16:14:27.165Z,58.95
2022-12-04T16:19:40.086Z,56.55
2022-12-04T16:24:42.620Z,58.55
2022-12-04T16:29:45.426Z,62.13
2022-12-04T16:34:47.745Z,53.83
2022-12-04T16:39:50.590Z,76.40
2022-12-04T16:44:53.300Z,57.47
2022-12-04T16:49:54.984Z,57.25
2022-12-04T16:55:00.508Z,57.67
2022-12-04T17:00:05.191Z,57.63
2022-12-04T17:05:07.139Z,55.63
2022-12-04T17:10:09.030Z,51.75
2022-12-04T17:15:12.188Z,52.97
2022-12-04T17:20:17.256Z,52.10
2022-12-04T17:25:18.990Z,50.03
2022-12-04T17:30:20.662Z,49.35
2022-12-04T17:35:22.335Z,51.15
2022-12-04T17:40:23.984Z,55.90
2022-12-04T17:45:25.834Z,53.50
2022-12-04T17:50:27.515Z,68.20
2022-12-04T17:55:29.106Z,60.42
2022-12-04T18:00:30.885Z,57.00
2022-12-04T18:05:32.953Z,47.85
2022-12-04T18:10:35.202Z,58.55
2022-12-04T18:15:36.853Z,122.75
2022-12-04T18:20:39.279Z,71.05
2022-12-04T18:25:40.973Z,63.15
2022-12-04T18:30:43.066Z,42.80
2022-12-04T18:35:54.570Z,41.05
2022-12-04T18:41:02.249Z,40.97
2022-12-04T18:46:07.928Z,46.72
2022-12-04T18:51:17.627Z,48.13
2022-12-04T18:56:19.459Z,51.70
2022-12-04T19:01:21.227Z,46.53
2022-12-04T19:06:28.468Z,45.65
2022-12-04T19:16:32.660Z,44.75
2022-12-04T19:21:34.571Z,40.25
2022-12-04T19:26:36.669Z,41.42
2022-12-04T19:31:38.461Z,40.53
2022-12-04T19:36:41.300Z,28.40
2022-12-04T19:41:43.375Z,21.73
2022-12-04T19:46:45.079Z,18.95
2022-12-04T19:51:48.461Z,19.73
2022-12-04T19:56:52.483Z,17.77
2022-12-04T20:01:54.321Z,17.85
2022-12-04T20:06:56.251Z,19.25
2022-12-04T20:11:58.212Z,17.95
2022-12-04T20:17:01.729Z,22.50
2022-12-04T20:22:05.010Z,19.52
2022-12-04T20:27:06.714Z,17.33
2022-12-04T20:32:08.545Z,23.23
2022-12-04T20:37:10.263Z,22.90
2022-12-04T20:42:15.840Z,45.40
2022-12-04T20:47:17.899Z,20.20
2022-12-04T20:52:21.146Z,17.45
2022-12-04T20:57:23.192Z,17.52
2022-12-04T21:02:25.517Z,17.98
2022-12-04T21:07:27.241Z,16.83
2022-12-04T21:12:58.202Z,17.92
2022-12-04T21:18:02.780Z,23.52
2022-12-04T21:23:04.555Z,24.23
2022-12-04T21:28:06.744Z,24.52
2022-12-04T21:33:08.395Z,25.13
2022-12-04T21:38:10.078Z,25.10
2022-12-04T21:43:11.859Z,23.55
2022-12-04T21:48:13.712Z,22.88
2022-12-04T21:53:15.377Z,19.90
2022-12-04T21:58:18.517Z,17.60
2022-12-04T22:03:20.322Z,16.95
2022-12-04T22:08:22.128Z,14.52
2022-12-04T22:13:24.327Z,14.95
2022-12-04T22:18:25.933Z,13.55
2022-12-04T22:23:27.579Z,12.43
2022-12-04T22:28:29.180Z,12.30
2022-12-04T22:33:31.430Z,12.95
2022-12-04T22:38:42.479Z,12.20
2022-12-04T22:43:54.213Z,13.02
2022-12-04T22:48:55.827Z,12.18
2022-12-04T22:53:58.329Z,12.70
2022-12-04T22:59:00.357Z,13.35
2022-12-04T23:04:03.513Z,12.88
2022-12-04T23:09:08.855Z,13.25
2022-12-04T23:14:14.412Z,13.55
2022-12-04T23:19:18.388Z,13.23
2022-12-04T23:24:20.111Z,13.98
2022-12-04T23:29:52.629Z,14.98
2022-12-04T23:34:43.384Z,15.80
2022-12-04T23:39:45.172Z,16.42
2022-12-04T23:44:46.781Z,16.92
2022-12-04T23:49:48.430Z,17.80
2022-12-04T23:54:50.060Z,18.40
2022-12-04T23:59:52.419Z,20.17
